sensor_id;sensor_type;location;lat;lon;timestamp;temperature;humidity
72604;DHT22;60645;56.968;24.196;2023-03-23T00:02:02;8.40;99.20
72604;DHT22;60645;56.968;24.196;2023-03-23T00:04:28;8.30;99.30
72604;DHT22;60645;56.968;24.196;2023-03-23T00:06:57;8.30;99.40
72604;DHT22;60645;56.968;24.196;2023-03-23T00:09:26;8.30;99.20
72604;DHT22;60645;56.968;24.196;2023-03-23T00:11:52;8.40;99.20
72604;DHT22;60645;56.968;24.196;2023-03-23T00:14:22;8.30;99.30
72604;DHT22;60645;56.968;24.196;2023-03-23T00:16:49;8.30;99.20
72604;DHT22;60645;56.968;24.196;2023-03-23T00:19:16;8.20;99.20
72604;DHT22;60645;56.968;24.196;2023-03-23T00:21:44;8.30;99.20
72604;DHT22;60645;56.968;24.196;2023-03-23T00:24:11;8.30;99.20
72604;DHT22;60645;56.968;24.196;2023-03-23T00:26:42;8.30;99.20
72604;DHT22;60645;56.968;24.196;2023-03-23T00:29:12;8.30;99.20
72604;DHT22;60645;56.968;24.196;2023-03-23T00:31:39;8.20;99.20
72604;DHT22;60645;56.968;24.196;2023-03-23T00:34:04;8.30;99.20
72604;DHT22;60645;56.968;24.196;2023-03-23T00:36:31;8.20;99.00
72604;DHT22;60645;56.968;24.196;2023-03-23T00:38:57;8.30;99.20
72604;DHT22;60645;56.968;24.196;2023-03-23T00:41:27;8.20;99.00
72604;DHT22;60645;56.968;24.196;2023-03-23T00:43:54;8.30;99.00
72604;DHT22;60645;56.968;24.196;2023-03-23T00:46:20;8.30;98.80
72604;DHT22;60645;56.968;24.196;2023-03-23T00:48:46;8.30;98.80
72604;DHT22;60645;56.968;24.196;2023-03-23T00:51:12;8.40;98.70
72604;DHT22;60645;56.968;24.196;2023-03-23T00:53:38;8.40;98.50
72604;DHT22;60645;56.968;24.196;2023-03-23T00:56:04;8.40;98.40
72604;DHT22;60645;56.968;24.196;2023-03-23T00:58:30;8.30;98.30
72604;DHT22;60645;56.968;24.196;2023-03-23T01:00:56;8.40;98.30
72604;DHT22;60645;56.968;24.196;2023-03-23T01:03:22;8.40;98.30
72604;DHT22;60645;56.968;24.196;2023-03-23T01:05:51;8.40;98.30
72604;DHT22;60645;56.968;24.196;2023-03-23T01:08:17;8.50;98.10
72604;DHT22;60645;56.968;24.196;2023-03-23T01:10:44;8.40;98.00
72604;DHT22;60645;56.968;24.196;2023-03-23T01:13:10;8.40;98.00
72604;DHT22;60645;56.968;24.196;2023-03-23T01:15:36;8.40;98.00
72604;DHT22;60645;56.968;24.196;2023-03-23T01:18:02;8.40;97.90
72604;DHT22;60645;56.968;24.196;2023-03-23T01:20:28;8.40;98.00
72604;DHT22;60645;56.968;24.196;2023-03-23T01:22:57;8.50;97.90
72604;DHT22;60645;56.968;24.196;2023-03-23T01:25:35;8.40;97.90
72604;DHT22;60645;56.968;24.196;2023-03-23T01:28:01;8.40;97.80
72604;DHT22;60645;56.968;24.196;2023-03-23T01:30:28;8.40;97.90
72604;DHT22;60645;56.968;24.196;2023-03-23T01:32:54;8.40;97.80
72604;DHT22;60645;56.968;24.196;2023-03-23T01:35:20;8.40;98.00
72604;DHT22;60645;56.968;24.196;2023-03-23T01:37:46;8.40;97.80
72604;DHT22;60645;56.968;24.196;2023-03-23T01:40:13;8.50;97.70
72604;DHT22;60645;56.968;24.196;2023-03-23T01:42:39;8.40;97.90
72604;DHT22;60645;56.968;24.196;2023-03-23T01:45:25;8.50;97.80
72604;DHT22;60645;56.968;24.196;2023-03-23T01:47:54;8.50;97.90
72604;DHT22;60645;56.968;24.196;2023-03-23T01:50:21;8.50;97.80
72604;DHT22;60645;56.968;24.196;2023-03-23T01:52:49;8.40;97.70
72604;DHT22;60645;56.968;24.196;2023-03-23T01:55:16;8.60;97.80
72604;DHT22;60645;56.968;24.196;2023-03-23T01:57:42;8.50;97.60
72604;DHT22;60645;56.968;24.196;2023-03-23T02:00:08;8.60;97.60
72604;DHT22;60645;56.968;24.196;2023-03-23T02:02:44;8.50;97.60
72604;DHT22;60645;56.968;24.196;2023-03-23T02:05:31;8.50;97.60
72604;DHT22;60645;56.968;24.196;2023-03-23T02:07:59;8.60;97.60
72604;DHT22;60645;56.968;24.196;2023-03-23T02:10:29;8.50;97.60
72604;DHT22;60645;56.968;24.196;2023-03-23T02:12:55;8.60;97.70
72604;DHT22;60645;56.968;24.196;2023-03-23T02:15:21;8.60;97.70
72604;DHT22;60645;56.968;24.196;2023-03-23T02:17:54;8.60;97.80
72604;DHT22;60645;56.968;24.196;2023-03-23T02:28:31;8.70;97.60
72604;DHT22;60645;56.968;24.196;2023-03-23T02:33:35;8.70;97.80
72604;DHT22;60645;56.968;24.196;2023-03-23T02:36:04;8.70;98.00
72604;DHT22;60645;56.968;24.196;2023-03-23T02:41:02;8.60;98.50
72604;DHT22;60645;56.968;24.196;2023-03-23T02:43:30;8.50;98.60
72604;DHT22;60645;56.968;24.196;2023-03-23T02:45:57;8.60;98.80
72604;DHT22;60645;56.968;24.196;2023-03-23T02:48:24;8.60;99.20
72604;DHT22;60645;56.968;24.196;2023-03-23T02:50:52;8.60;99.20
72604;DHT22;60645;56.968;24.196;2023-03-23T02:53:20;8.50;99.50
72604;DHT22;60645;56.968;24.196;2023-03-23T02:55:47;8.50;99.60
72604;DHT22;60645;56.968;24.196;2023-03-23T02:58:14;8.40;99.70
72604;DHT22;60645;56.968;24.196;2023-03-23T03:00:40;8.60;99.60
72604;DHT22;60645;56.968;24.196;2023-03-23T03:03:09;8.60;99.60
72604;DHT22;60645;56.968;24.196;2023-03-23T03:06:10;8.70;99.30
72604;DHT22;60645;56.968;24.196;2023-03-23T03:08:34;8.60;99.20
72604;DHT22;60645;56.968;24.196;2023-03-23T03:11:07;8.60;99.30
72604;DHT22;60645;56.968;24.196;2023-03-23T03:16:28;8.80;99.00
72604;DHT22;60645;56.968;24.196;2023-03-23T03:21:21;8.90;98.80
72604;DHT22;60645;56.968;24.196;2023-03-23T03:23:51;8.70;98.70
72604;DHT22;60645;56.968;24.196;2023-03-23T03:26:18;8.80;98.70
72604;DHT22;60645;56.968;24.196;2023-03-23T03:28:46;8.90;98.50
72604;DHT22;60645;56.968;24.196;2023-03-23T03:31:17;8.90;98.60
72604;DHT22;60645;56.968;24.196;2023-03-23T03:33:43;8.90;98.50
72604;DHT22;60645;56.968;24.196;2023-03-23T03:36:14;8.80;98.60
72604;DHT22;60645;56.968;24.196;2023-03-23T03:38:41;8.90;98.50
72604;DHT22;60645;56.968;24.196;2023-03-23T03:41:07;8.90;98.50
72604;DHT22;60645;56.968;24.196;2023-03-23T03:43:33;8.90;98.50
72604;DHT22;60645;56.968;24.196;2023-03-23T03:46:00;8.90;98.40
72604;DHT22;60645;56.968;24.196;2023-03-23T03:48:26;9.00;98.40
72604;DHT22;60645;56.968;24.196;2023-03-23T03:50:51;8.90;98.50
72604;DHT22;60645;56.968;24.196;2023-03-23T03:53:17;9.00;98.60
72604;DHT22;60645;56.968;24.196;2023-03-23T03:55:43;9.10;98.50
72604;DHT22;60645;56.968;24.196;2023-03-23T03:58:10;9.00;98.50
72604;DHT22;60645;56.968;24.196;2023-03-23T04:00:36;9.10;98.40
72604;DHT22;60645;56.968;24.196;2023-03-23T04:03:02;9.10;98.40
72604;DHT22;60645;56.968;24.196;2023-03-23T04:05:27;9.10;98.30
72604;DHT22;60645;56.968;24.196;2023-03-23T04:07:55;9.10;98.30
72604;DHT22;60645;56.968;24.196;2023-03-23T04:10:27;9.00;98.30
72604;DHT22;60645;56.968;24.196;2023-03-23T04:12:53;9.10;98.20
72604;DHT22;60645;56.968;24.196;2023-03-23T04:15:18;9.10;98.00
72604;DHT22;60645;56.968;24.196;2023-03-23T04:17:45;9.10;97.90
72604;DHT22;60645;56.968;24.196;2023-03-23T04:20:11;9.10;97.80
72604;DHT22;60645;56.968;24.196;2023-03-23T04:22:43;9.20;97.70
72604;DHT22;60645;56.968;24.196;2023-03-23T04:25:10;9.20;97.60
72604;DHT22;60645;56.968;24.196;2023-03-23T04:27:38;9.20;97.50
72604;DHT22;60645;56.968;24.196;2023-03-23T04:30:04;9.20;97.40
72604;DHT22;60645;56.968;24.196;2023-03-23T04:32:30;9.30;97.40
72604;DHT22;60645;56.968;24.196;2023-03-23T04:34:56;9.30;97.30
72604;DHT22;60645;56.968;24.196;2023-03-23T04:37:23;9.30;97.20
72604;DHT22;60645;56.968;24.196;2023-03-23T04:39:51;9.20;97.10
72604;DHT22;60645;56.968;24.196;2023-03-23T04:42:28;9.30;97.20
72604;DHT22;60645;56.968;24.196;2023-03-23T04:44:55;9.30;97.30
72604;DHT22;60645;56.968;24.196;2023-03-23T04:47:21;9.40;97.20
72604;DHT22;60645;56.968;24.196;2023-03-23T04:49:47;9.30;97.10
72604;DHT22;60645;56.968;24.196;2023-03-23T04:52:13;9.40;97.00
72604;DHT22;60645;56.968;24.196;2023-03-23T04:54:39;9.40;97.00
72604;DHT22;60645;56.968;24.196;2023-03-23T04:57:05;9.50;96.90
72604;DHT22;60645;56.968;24.196;2023-03-23T04:59:30;9.40;96.70
72604;DHT22;60645;56.968;24.196;2023-03-23T05:01:56;9.40;96.80
72604;DHT22;60645;56.968;24.196;2023-03-23T05:04:22;9.50;96.50
72604;DHT22;60645;56.968;24.196;2023-03-23T05:06:51;9.50;96.60
72604;DHT22;60645;56.968;24.196;2023-03-23T05:09:17;9.50;96.20
72604;DHT22;60645;56.968;24.196;2023-03-23T05:11:42;9.50;96.30
72604;DHT22;60645;56.968;24.196;2023-03-23T05:14:08;9.50;96.30
72604;DHT22;60645;56.968;24.196;2023-03-23T05:16:35;9.60;96.20
72604;DHT22;60645;56.968;24.196;2023-03-23T05:19:02;9.60;96.30
72604;DHT22;60645;56.968;24.196;2023-03-23T05:21:27;9.60;96.30
72604;DHT22;60645;56.968;24.196;2023-03-23T05:23:53;9.70;96.10
72604;DHT22;60645;56.968;24.196;2023-03-23T05:26:20;9.60;96.20
72604;DHT22;60645;56.968;24.196;2023-03-23T05:28:46;9.70;95.80
72604;DHT22;60645;56.968;24.196;2023-03-23T05:31:11;9.80;95.60
72604;DHT22;60645;56.968;24.196;2023-03-23T05:33:38;9.80;95.50
72604;DHT22;60645;56.968;24.196;2023-03-23T05:36:04;9.80;95.60
72604;DHT22;60645;56.968;24.196;2023-03-23T05:38:32;9.90;95.20
72604;DHT22;60645;56.968;24.196;2023-03-23T05:40:58;9.90;95.20
72604;DHT22;60645;56.968;24.196;2023-03-23T05:43:26;9.80;95.30
72604;DHT22;60645;56.968;24.196;2023-03-23T05:45:52;9.90;95.10
72604;DHT22;60645;56.968;24.196;2023-03-23T05:48:18;10.00;94.70
72604;DHT22;60645;56.968;24.196;2023-03-23T05:50:44;10.20;94.30
72604;DHT22;60645;56.968;24.196;2023-03-23T05:53:09;10.40;93.50
72604;DHT22;60645;56.968;24.196;2023-03-23T05:55:35;10.30;93.50
72604;DHT22;60645;56.968;24.196;2023-03-23T05:58:01;10.40;93.00
72604;DHT22;60645;56.968;24.196;2023-03-23T06:00:26;10.40;92.90
72604;DHT22;60645;56.968;24.196;2023-03-23T06:02:55;10.50;92.90
72604;DHT22;60645;56.968;24.196;2023-03-23T06:05:22;10.50;92.70
72604;DHT22;60645;56.968;24.196;2023-03-23T06:07:49;10.50;92.40
72604;DHT22;60645;56.968;24.196;2023-03-23T06:10:14;10.60;92.40
72604;DHT22;60645;56.968;24.196;2023-03-23T06:12:42;10.60;92.40
72604;DHT22;60645;56.968;24.196;2023-03-23T06:15:08;10.60;92.30
72604;DHT22;60645;56.968;24.196;2023-03-23T06:17:34;10.70;92.00
72604;DHT22;60645;56.968;24.196;2023-03-23T06:20:02;10.80;91.40
72604;DHT22;60645;56.968;24.196;2023-03-23T06:22:29;10.80;91.40
72604;DHT22;60645;56.968;24.196;2023-03-23T06:24:55;10.70;91.60
72604;DHT22;60645;56.968;24.196;2023-03-23T06:27:24;10.70;91.60
72604;DHT22;60645;56.968;24.196;2023-03-23T06:29:49;10.60;91.50
72604;DHT22;60645;56.968;24.196;2023-03-23T06:32:15;10.70;91.50
72604;DHT22;60645;56.968;24.196;2023-03-23T06:34:41;10.60;91.90
72604;DHT22;60645;56.968;24.196;2023-03-23T06:37:10;10.50;92.10
72604;DHT22;60645;56.968;24.196;2023-03-23T06:39:36;10.40;92.50
72604;DHT22;60645;56.968;24.196;2023-03-23T06:42:08;10.40;92.50
72604;DHT22;60645;56.968;24.196;2023-03-23T06:44:34;10.50;92.40
72604;DHT22;60645;56.968;24.196;2023-03-23T06:46:59;10.50;92.20
72604;DHT22;60645;56.968;24.196;2023-03-23T06:49:25;10.70;91.80
72604;DHT22;60645;56.968;24.196;2023-03-23T06:51:51;10.60;92.00
72604;DHT22;60645;56.968;24.196;2023-03-23T06:54:17;10.60;92.00
72604;DHT22;60645;56.968;24.196;2023-03-23T06:56:42;10.70;91.10
72604;DHT22;60645;56.968;24.196;2023-03-23T06:59:09;10.70;91.20
72604;DHT22;60645;56.968;24.196;2023-03-23T07:01:35;10.70;91.10
72604;DHT22;60645;56.968;24.196;2023-03-23T07:04:02;10.90;90.80
72604;DHT22;60645;56.968;24.196;2023-03-23T07:06:27;10.90;90.40
72604;DHT22;60645;56.968;24.196;2023-03-23T07:08:53;11.00;90.40
72604;DHT22;60645;56.968;24.196;2023-03-23T07:11:19;11.10;89.70
72604;DHT22;60645;56.968;24.196;2023-03-23T07:51:26;11.40;88.50
72604;DHT22;60645;56.968;24.196;2023-03-23T07:53:53;11.30;88.80
72604;DHT22;60645;56.968;24.196;2023-03-23T07:56:20;11.20;88.80
72604;DHT22;60645;56.968;24.196;2023-03-23T07:58:46;11.40;88.80
72604;DHT22;60645;56.968;24.196;2023-03-23T08:01:12;11.60;88.30
72604;DHT22;60645;56.968;24.196;2023-03-23T08:03:38;11.40;87.90
72604;DHT22;60645;56.968;24.196;2023-03-23T08:06:04;11.30;88.80
72604;DHT22;60645;56.968;24.196;2023-03-23T08:08:29;11.30;88.70
72604;DHT22;60645;56.968;24.196;2023-03-23T08:10:55;11.40;88.20
72604;DHT22;60645;56.968;24.196;2023-03-23T08:13:21;11.30;88.00
72604;DHT22;60645;56.968;24.196;2023-03-23T08:15:47;11.50;88.10
72604;DHT22;60645;56.968;24.196;2023-03-23T08:18:13;11.40;88.50
72604;DHT22;60645;56.968;24.196;2023-03-23T08:20:39;11.40;88.30
72604;DHT22;60645;56.968;24.196;2023-03-23T08:23:05;11.40;88.10
72604;DHT22;60645;56.968;24.196;2023-03-23T08:25:31;11.40;87.90
72604;DHT22;60645;56.968;24.196;2023-03-23T08:27:57;11.70;87.80
72604;DHT22;60645;56.968;24.196;2023-03-23T08:30:24;11.80;87.90
72604;DHT22;60645;56.968;24.196;2023-03-23T08:32:51;12.00;87.50
72604;DHT22;60645;56.968;24.196;2023-03-23T08:35:18;12.10;87.10
72604;DHT22;60645;56.968;24.196;2023-03-23T08:37:44;12.30;87.60
72604;DHT22;60645;56.968;24.196;2023-03-23T08:40:11;12.30;86.90
72604;DHT22;60645;56.968;24.196;2023-03-23T08:42:40;12.50;86.80
72604;DHT22;60645;56.968;24.196;2023-03-23T08:45:06;12.60;86.40
72604;DHT22;60645;56.968;24.196;2023-03-23T08:47:33;12.50;86.40
72604;DHT22;60645;56.968;24.196;2023-03-23T08:49:58;12.60;86.10
72604;DHT22;60645;56.968;24.196;2023-03-23T08:52:24;12.60;86.50
72604;DHT22;60645;56.968;24.196;2023-03-23T08:54:50;12.40;86.90
72604;DHT22;60645;56.968;24.196;2023-03-23T08:57:15;12.40;86.20
72604;DHT22;60645;56.968;24.196;2023-03-23T08:59:41;12.30;86.70
72604;DHT22;60645;56.968;24.196;2023-03-23T09:02:10;12.10;86.80
72604;DHT22;60645;56.968;24.196;2023-03-23T09:04:37;12.30;86.70
72604;DHT22;60645;56.968;24.196;2023-03-23T09:07:03;12.40;86.30
72604;DHT22;60645;56.968;24.196;2023-03-23T09:09:29;12.60;86.50
72604;DHT22;60645;56.968;24.196;2023-03-23T09:11:54;13.00;84.70
72604;DHT22;60645;56.968;24.196;2023-03-23T09:14:20;13.00;83.70
72604;DHT22;60645;56.968;24.196;2023-03-23T09:16:46;13.00;84.00
72604;DHT22;60645;56.968;24.196;2023-03-23T09:19:11;13.10;83.90
72604;DHT22;60645;56.968;24.196;2023-03-23T09:21:37;13.10;83.70
72604;DHT22;60645;56.968;24.196;2023-03-23T09:24:04;13.00;83.70
72604;DHT22;60645;56.968;24.196;2023-03-23T09:26:30;12.80;84.20
72604;DHT22;60645;56.968;24.196;2023-03-23T09:28:56;12.60;84.60
72604;DHT22;60645;56.968;24.196;2023-03-23T09:31:22;12.50;85.40
72604;DHT22;60645;56.968;24.196;2023-03-23T09:33:49;12.30;86.10
72604;DHT22;60645;56.968;24.196;2023-03-23T09:36:20;12.30;86.10
72604;DHT22;60645;56.968;24.196;2023-03-23T09:38:47;12.20;85.80
72604;DHT22;60645;56.968;24.196;2023-03-23T09:48:56;12.10;86.30
72604;DHT22;60645;56.968;24.196;2023-03-23T09:53:57;12.10;86.10
72604;DHT22;60645;56.968;24.196;2023-03-23T09:56:24;12.00;86.30
72604;DHT22;60645;56.968;24.196;2023-03-23T09:59:00;11.90;86.40
72604;DHT22;60645;56.968;24.196;2023-03-23T10:01:32;12.10;86.60
72604;DHT22;60645;56.968;24.196;2023-03-23T10:04:09;11.80;86.80
72604;DHT22;60645;56.968;24.196;2023-03-23T10:06:37;11.90;87.20
72604;DHT22;60645;56.968;24.196;2023-03-23T10:09:04;11.90;88.20
72604;DHT22;60645;56.968;24.196;2023-03-23T10:14:24;11.40;89.40
72604;DHT22;60645;56.968;24.196;2023-03-23T10:19:19;11.00;91.30
72604;DHT22;60645;56.968;24.196;2023-03-23T10:21:47;10.90;92.20
72604;DHT22;60645;56.968;24.196;2023-03-23T10:24:16;10.70;93.10
72604;DHT22;60645;56.968;24.196;2023-03-23T10:29:43;10.60;94.30
72604;DHT22;60645;56.968;24.196;2023-03-23T10:32:16;10.60;94.60
72604;DHT22;60645;56.968;24.196;2023-03-23T10:40:02;10.70;94.30
72604;DHT22;60645;56.968;24.196;2023-03-23T10:42:32;10.60;94.90
72604;DHT22;60645;56.968;24.196;2023-03-23T10:45:20;10.60;94.70
72604;DHT22;60645;56.968;24.196;2023-03-23T10:47:46;10.60;95.00
72604;DHT22;60645;56.968;24.196;2023-03-23T10:50:14;10.70;94.70
72604;DHT22;60645;56.968;24.196;2023-03-23T10:52:44;10.60;94.80
72604;DHT22;60645;56.968;24.196;2023-03-23T10:57:36;10.70;95.00
72604;DHT22;60645;56.968;24.196;2023-03-23T11:02:31;10.80;94.70
72604;DHT22;60645;56.968;24.196;2023-03-23T11:05:05;10.70;94.70
72604;DHT22;60645;56.968;24.196;2023-03-23T11:07:33;10.70;94.80
72604;DHT22;60645;56.968;24.196;2023-03-23T11:10:11;10.60;95.50
72604;DHT22;60645;56.968;24.196;2023-03-23T11:12:43;10.50;95.50
72604;DHT22;60645;56.968;24.196;2023-03-23T11:15:20;10.60;95.50
72604;DHT22;60645;56.968;24.196;2023-03-23T11:17:54;10.40;96.10
72604;DHT22;60645;56.968;24.196;2023-03-23T11:20:21;10.40;96.50
72604;DHT22;60645;56.968;24.196;2023-03-23T11:22:46;10.40;96.30
72604;DHT22;60645;56.968;24.196;2023-03-23T11:25:12;10.50;96.50
72604;DHT22;60645;56.968;24.196;2023-03-23T11:27:38;10.50;96.20
72604;DHT22;60645;56.968;24.196;2023-03-23T11:30:10;10.50;96.30
72604;DHT22;60645;56.968;24.196;2023-03-23T11:32:36;10.60;96.50
72604;DHT22;60645;56.968;24.196;2023-03-23T11:35:04;10.60;96.60
72604;DHT22;60645;56.968;24.196;2023-03-23T11:37:40;10.60;96.60
72604;DHT22;60645;56.968;24.196;2023-03-23T11:42:42;10.60;96.80
72604;DHT22;60645;56.968;24.196;2023-03-23T11:45:24;10.50;97.10
72604;DHT22;60645;56.968;24.196;2023-03-23T11:52:47;10.30;97.60
72604;DHT22;60645;56.968;24.196;2023-03-23T11:55:16;10.40;97.60
72604;DHT22;60645;56.968;24.196;2023-03-23T11:57:44;10.50;97.80
72604;DHT22;60645;56.968;24.196;2023-03-23T12:00:14;10.50;97.70
72604;DHT22;60645;56.968;24.196;2023-03-23T12:02:47;10.40;98.00
72604;DHT22;60645;56.968;24.196;2023-03-23T12:12:57;10.20;99.00
72604;DHT22;60645;56.968;24.196;2023-03-23T12:20:31;10.20;98.80
72604;DHT22;60645;56.968;24.196;2023-03-23T12:28:00;10.20;98.90
72604;DHT22;60645;56.968;24.196;2023-03-23T12:30:45;10.10;98.90
72604;DHT22;60645;56.968;24.196;2023-03-23T12:41:00;10.20;99.00
72604;DHT22;60645;56.968;24.196;2023-03-23T12:43:37;10.20;99.10
72604;DHT22;60645;56.968;24.196;2023-03-23T12:46:22;10.30;99.00
72604;DHT22;60645;56.968;24.196;2023-03-23T12:49:35;10.40;99.00
72604;DHT22;60645;56.968;24.196;2023-03-23T12:51:49;10.50;98.50
72604;DHT22;60645;56.968;24.196;2023-03-23T12:54:26;10.50;98.50
72604;DHT22;60645;56.968;24.196;2023-03-23T12:57:06;10.50;98.50
72604;DHT22;60645;56.968;24.196;2023-03-23T13:02:19;10.40;98.60
72604;DHT22;60645;56.968;24.196;2023-03-23T13:04:47;10.50;98.60
72604;DHT22;60645;56.968;24.196;2023-03-23T13:07:17;10.40;98.60
72604;DHT22;60645;56.968;24.196;2023-03-23T13:09:58;10.20;99.20
72604;DHT22;60645;56.968;24.196;2023-03-23T13:12:27;10.20;99.60
72604;DHT22;60645;56.968;24.196;2023-03-23T13:15:16;10.30;99.40
72604;DHT22;60645;56.968;24.196;2023-03-23T13:17:48;10.20;99.50
72604;DHT22;60645;56.968;24.196;2023-03-23T13:27:58;10.20;99.40
72604;DHT22;60645;56.968;24.196;2023-03-23T13:30:24;10.10;99.30
72604;DHT22;60645;56.968;24.196;2023-03-23T13:32:51;10.20;99.70
72604;DHT22;60645;56.968;24.196;2023-03-23T13:35:18;10.20;99.70
72604;DHT22;60645;56.968;24.196;2023-03-23T13:37:50;10.20;99.80
72604;DHT22;60645;56.968;24.196;2023-03-23T13:40:27;10.30;99.80
72604;DHT22;60645;56.968;24.196;2023-03-23T13:42:54;10.10;99.80
72604;DHT22;60645;56.968;24.196;2023-03-23T13:48:16;10.10;99.90
72604;DHT22;60645;56.968;24.196;2023-03-23T13:50:48;10.20;99.90
72604;DHT22;60645;56.968;24.196;2023-03-23T13:53:14;10.00;99.90
72604;DHT22;60645;56.968;24.196;2023-03-23T13:55:50;10.10;99.90
72604;DHT22;60645;56.968;24.196;2023-03-23T13:58:26;10.00;99.90
72604;DHT22;60645;56.968;24.196;2023-03-23T14:01:12;10.00;99.90
72604;DHT22;60645;56.968;24.196;2023-03-23T14:03:42;10.10;99.90
72604;DHT22;60645;56.968;24.196;2023-03-23T14:06:15;10.20;99.90
72604;DHT22;60645;56.968;24.196;2023-03-23T14:08:43;10.20;99.90
72604;DHT22;60645;56.968;24.196;2023-03-23T14:16:04;10.20;99.90
72604;DHT22;60645;56.968;24.196;2023-03-23T14:18:37;10.20;99.90
72604;DHT22;60645;56.968;24.196;2023-03-23T14:21:04;10.30;99.90
72604;DHT22;60645;56.968;24.196;2023-03-23T14:23:33;10.20;99.90
72604;DHT22;60645;56.968;24.196;2023-03-23T14:26:00;10.20;99.90
72604;DHT22;60645;56.968;24.196;2023-03-23T14:28:41;10.10;99.90
72604;DHT22;60645;56.968;24.196;2023-03-23T14:33:45;10.10;99.90
72604;DHT22;60645;56.968;24.196;2023-03-23T14:36:11;10.30;99.90
72604;DHT22;60645;56.968;24.196;2023-03-23T14:38:36;10.20;99.90
72604;DHT22;60645;56.968;24.196;2023-03-23T14:41:04;10.10;99.90
72604;DHT22;60645;56.968;24.196;2023-03-23T14:43:30;10.20;99.90
72604;DHT22;60645;56.968;24.196;2023-03-23T14:46:00;10.20;99.70
72604;DHT22;60645;56.968;24.196;2023-03-23T14:48:26;10.20;99.50
72604;DHT22;60645;56.968;24.196;2023-03-23T14:50:57;10.10;99.70
72604;DHT22;60645;56.968;24.196;2023-03-23T14:55:49;10.10;99.10
72604;DHT22;60645;56.968;24.196;2023-03-23T14:58:17;10.10;99.40
72604;DHT22;60645;56.968;24.196;2023-03-23T15:00:47;10.10;99.40
72604;DHT22;60645;56.968;24.196;2023-03-23T15:03:15;10.00;99.60
72604;DHT22;60645;56.968;24.196;2023-03-23T15:05:57;10.00;99.80
72604;DHT22;60645;56.968;24.196;2023-03-23T15:11:05;10.00;99.90
72604;DHT22;60645;56.968;24.196;2023-03-23T15:13:32;10.10;99.90
72604;DHT22;60645;56.968;24.196;2023-03-23T15:16:06;10.00;99.90
72604;DHT22;60645;56.968;24.196;2023-03-23T15:18:36;10.00;99.90
72604;DHT22;60645;56.968;24.196;2023-03-23T15:21:09;10.10;99.90
72604;DHT22;60645;56.968;24.196;2023-03-23T15:23:35;10.00;99.90
72604;DHT22;60645;56.968;24.196;2023-03-23T15:26:06;10.20;99.90
72604;DHT22;60645;56.968;24.196;2023-03-23T15:28:38;10.10;99.90
72604;DHT22;60645;56.968;24.196;2023-03-23T15:31:05;10.10;99.90
72604;DHT22;60645;56.968;24.196;2023-03-23T15:33:38;10.10;99.90
72604;DHT22;60645;56.968;24.196;2023-03-23T15:36:08;10.10;99.90
72604;DHT22;60645;56.968;24.196;2023-03-23T15:38:34;10.10;99.90
72604;DHT22;60645;56.968;24.196;2023-03-23T15:41:05;10.10;99.90
72604;DHT22;60645;56.968;24.196;2023-03-23T15:43:32;10.00;99.90
72604;DHT22;60645;56.968;24.196;2023-03-23T16:00:00;10.00;99.90
72604;DHT22;60645;56.968;24.196;2023-03-23T16:02:27;10.00;99.90
72604;DHT22;60645;56.968;24.196;2023-03-23T16:04:54;10.00;99.90
72604;DHT22;60645;56.968;24.196;2023-03-23T16:07:22;10.00;99.90
72604;DHT22;60645;56.968;24.196;2023-03-23T16:09:49;10.00;99.90
72604;DHT22;60645;56.968;24.196;2023-03-23T16:12:16;10.00;99.90
72604;DHT22;60645;56.968;24.196;2023-03-23T16:14:43;10.00;99.90
72604;DHT22;60645;56.968;24.196;2023-03-23T16:17:10;10.00;99.90
72604;DHT22;60645;56.968;24.196;2023-03-23T16:19:39;9.90;99.90
72604;DHT22;60645;56.968;24.196;2023-03-23T16:22:07;9.90;99.90
72604;DHT22;60645;56.968;24.196;2023-03-23T16:24:33;9.80;99.90
72604;DHT22;60645;56.968;24.196;2023-03-23T16:27:00;9.90;99.80
72604;DHT22;60645;56.968;24.196;2023-03-23T16:29:27;9.80;99.70
72604;DHT22;60645;56.968;24.196;2023-03-23T16:32:14;9.80;99.90
72604;DHT22;60645;56.968;24.196;2023-03-23T16:34:41;9.80;99.90
72604;DHT22;60645;56.968;24.196;2023-03-23T16:37:08;9.80;99.60
72604;DHT22;60645;56.968;24.196;2023-03-23T16:39:36;9.70;99.70
72604;DHT22;60645;56.968;24.196;2023-03-23T16:42:03;9.70;99.50
72604;DHT22;60645;56.968;24.196;2023-03-23T16:44:30;9.70;99.60
72604;DHT22;60645;56.968;24.196;2023-03-23T16:46:57;9.70;99.80
72604;DHT22;60645;56.968;24.196;2023-03-23T16:49:23;9.60;99.50
72604;DHT22;60645;56.968;24.196;2023-03-23T16:51:50;9.60;99.40
72604;DHT22;60645;56.968;24.196;2023-03-23T16:54:17;9.60;99.80
72604;DHT22;60645;56.968;24.196;2023-03-23T16:56:44;9.50;99.20
72604;DHT22;60645;56.968;24.196;2023-03-23T16:59:12;9.50;99.70
72604;DHT22;60645;56.968;24.196;2023-03-23T17:01:39;9.50;99.90
72604;DHT22;60645;56.968;24.196;2023-03-23T17:04:06;9.50;99.80
72604;DHT22;60645;56.968;24.196;2023-03-23T17:06:33;9.50;99.80
72604;DHT22;60645;56.968;24.196;2023-03-23T17:09:00;9.50;99.50
72604;DHT22;60645;56.968;24.196;2023-03-23T17:11:27;9.50;99.50
72604;DHT22;60645;56.968;24.196;2023-03-23T17:13:54;9.40;99.60
72604;DHT22;60645;56.968;24.196;2023-03-23T17:16:23;9.50;99.50
72604;DHT22;60645;56.968;24.196;2023-03-23T17:18:50;9.40;99.60
72604;DHT22;60645;56.968;24.196;2023-03-23T17:21:17;9.40;99.50
72604;DHT22;60645;56.968;24.196;2023-03-23T17:23:46;9.40;99.80
72604;DHT22;60645;56.968;24.196;2023-03-23T17:26:12;9.40;99.80
72604;DHT22;60645;56.968;24.196;2023-03-23T17:28:39;9.40;99.70
72604;DHT22;60645;56.968;24.196;2023-03-23T17:31:06;9.40;99.20
72604;DHT22;60645;56.968;24.196;2023-03-23T17:33:33;9.40;99.10
72604;DHT22;60645;56.968;24.196;2023-03-23T17:36:00;9.50;99.00
72604;DHT22;60645;56.968;24.196;2023-03-23T17:38:27;9.40;99.70
72604;DHT22;60645;56.968;24.196;2023-03-23T17:41:00;9.40;99.30
72604;DHT22;60645;56.968;24.196;2023-03-23T17:43:27;9.50;99.10
72604;DHT22;60645;56.968;24.196;2023-03-23T17:45:54;9.40;99.10
72604;DHT22;60645;56.968;24.196;2023-03-23T17:48:21;9.40;99.30
72604;DHT22;60645;56.968;24.196;2023-03-23T17:50:48;9.40;99.40
72604;DHT22;60645;56.968;24.196;2023-03-23T17:53:19;9.40;99.50
72604;DHT22;60645;56.968;24.196;2023-03-23T17:55:45;9.40;99.30
72604;DHT22;60645;56.968;24.196;2023-03-23T17:58:12;9.50;99.50
72604;DHT22;60645;56.968;24.196;2023-03-23T18:00:39;9.40;99.40
72604;DHT22;60645;56.968;24.196;2023-03-23T18:03:06;9.40;99.40
72604;DHT22;60645;56.968;24.196;2023-03-23T18:05:33;9.40;99.20
72604;DHT22;60645;56.968;24.196;2023-03-23T18:08:00;9.50;99.10